sensor_id;sensor_type;location;lat;lon;timestamp;P1;durP1;ratioP1;P2;durP2;ratioP2
9671;SDS011;4874;43.568;27.824;2022-11-20T00:01:23;13.13;;;5.15;;
9671;SDS011;4874;43.568;27.824;2022-11-20T00:03:52;18.88;;;4.72;;
9671;SDS011;4874;43.568;27.824;2022-11-20T00:06:20;12.05;;;4.85;;
9671;SDS011;4874;43.568;27.824;2022-11-20T00:08:48;11.90;;;5.13;;
9671;SDS011;4874;43.568;27.824;2022-11-20T00:11:19;9.32;;;5.20;;
9671;SDS011;4874;43.568;27.824;2022-11-20T00:13:48;14.82;;;4.85;;
9671;SDS011;4874;43.568;27.824;2022-11-20T00:16:18;15.98;;;5.15;;
9671;SDS011;4874;43.568;27.824;2022-11-20T00:18:46;15.35;;;5.13;;
9671;SDS011;4874;43.568;27.824;2022-11-20T00:21:14;12.15;;;4.38;;
9671;SDS011;4874;43.568;27.824;2022-11-20T00:23:43;12.27;;;5.55;;
9671;SDS011;4874;43.568;27.824;2022-11-20T00:26:11;16.20;;;5.15;;
9671;SDS011;4874;43.568;27.824;2022-11-20T00:28:40;14.52;;;5.45;;
9671;SDS011;4874;43.568;27.824;2022-11-20T00:31:11;12.93;;;5.25;;
9671;SDS011;4874;43.568;27.824;2022-11-20T00:33:40;14.57;;;4.65;;
9671;SDS011;4874;43.568;27.824;2022-11-20T00:36:12;11.88;;;4.93;;
9671;SDS011;4874;43.568;27.824;2022-11-20T00:38:39;22.70;;;5.95;;
9671;SDS011;4874;43.568;27.824;2022-11-20T00:41:07;10.80;;;4.93;;
9671;SDS011;4874;43.568;27.824;2022-11-20T00:43:36;13.27;;;4.80;;
9671;SDS011;4874;43.568;27.824;2022-11-20T00:46:04;14.82;;;5.43;;
9671;SDS011;4874;43.568;27.824;2022-11-20T00:48:35;18.73;;;5.05;;
9671;SDS011;4874;43.568;27.824;2022-11-20T00:51:02;17.17;;;4.85;;
9671;SDS011;4874;43.568;27.824;2022-11-20T00:53:28;12.75;;;4.32;;
9671;SDS011;4874;43.568;27.824;2022-11-20T00:55:56;17.98;;;5.03;;
9671;SDS011;4874;43.568;27.824;2022-11-20T00:58:27;13.52;;;5.05;;
9671;SDS011;4874;43.568;27.824;2022-11-20T01:01:16;14.90;;;5.18;;
9671;SDS011;4874;43.568;27.824;2022-11-20T01:03:46;13.40;;;5.07;;
9671;SDS011;4874;43.568;27.824;2022-11-20T01:06:19;20.38;;;4.85;;
9671;SDS011;4874;43.568;27.824;2022-11-20T01:08:48;12.50;;;4.07;;
9671;SDS011;4874;43.568;27.824;2022-11-20T01:11:17;16.30;;;4.88;;
9671;SDS011;4874;43.568;27.824;2022-11-20T01:13:47;13.77;;;4.50;;
9671;SDS011;4874;43.568;27.824;2022-11-20T01:16:18;12.13;;;4.50;;
9671;SDS011;4874;43.568;27.824;2022-11-20T01:18:48;18.45;;;4.47;;
9671;SDS011;4874;43.568;27.824;2022-11-20T01:21:20;10.02;;;4.57;;
9671;SDS011;4874;43.568;27.824;2022-11-20T01:23:49;8.82;;;4.32;;
9671;SDS011;4874;43.568;27.824;2022-11-20T01:26:17;16.40;;;4.78;;
9671;SDS011;4874;43.568;27.824;2022-11-20T01:28:46;11.60;;;4.28;;
9671;SDS011;4874;43.568;27.824;2022-11-20T01:31:24;12.73;;;4.78;;
9671;SDS011;4874;43.568;27.824;2022-11-20T01:33:53;10.50;;;3.92;;
9671;SDS011;4874;43.568;27.824;2022-11-20T01:36:22;13.82;;;4.20;;
9671;SDS011;4874;43.568;27.824;2022-11-20T01:38:51;16.25;;;3.67;;
9671;SDS011;4874;43.568;27.824;2022-11-20T01:41:19;15.27;;;4.07;;
9671;SDS011;4874;43.568;27.824;2022-11-20T01:44:05;12.88;;;4.25;;
9671;SDS011;4874;43.568;27.824;2022-11-20T01:46:33;11.15;;;4.65;;
9671;SDS011;4874;43.568;27.824;2022-11-20T01:54:19;17.95;;;3.63;;
9671;SDS011;4874;43.568;27.824;2022-11-20T01:56:56;10.50;;;3.85;;
9671;SDS011;4874;43.568;27.824;2022-11-20T01:59:26;13.15;;;4.40;;
9671;SDS011;4874;43.568;27.824;2022-11-20T02:01:55;12.77;;;4.50;;
9671;SDS011;4874;43.568;27.824;2022-11-20T02:04:22;16.80;;;4.55;;
9671;SDS011;4874;43.568;27.824;2022-11-20T02:06:51;13.35;;;3.83;;
9671;SDS011;4874;43.568;27.824;2022-11-20T02:09:26;10.00;;;3.78;;
9671;SDS011;4874;43.568;27.824;2022-11-20T02:11:53;12.90;;;3.75;;
9671;SDS011;4874;43.568;27.824;2022-11-20T02:14:21;8.93;;;3.88;;
9671;SDS011;4874;43.568;27.824;2022-11-20T02:16:49;13.93;;;3.88;;
9671;SDS011;4874;43.568;27.824;2022-11-20T02:24:23;12.52;;;3.70;;
9671;SDS011;4874;43.568;27.824;2022-11-20T02:26:51;10.55;;;3.53;;
9671;SDS011;4874;43.568;27.824;2022-11-20T02:29:25;8.63;;;4.00;;
9671;SDS011;4874;43.568;27.824;2022-11-20T02:31:55;10.88;;;3.88;;
9671;SDS011;4874;43.568;27.824;2022-11-20T02:34:24;15.48;;;3.63;;
9671;SDS011;4874;43.568;27.824;2022-11-20T02:36:51;12.63;;;3.78;;
9671;SDS011;4874;43.568;27.824;2022-11-20T02:39:19;12.63;;;3.85;;
9671;SDS011;4874;43.568;27.824;2022-11-20T02:41:49;7.00;;;3.80;;
9671;SDS011;4874;43.568;27.824;2022-11-20T02:44:16;11.77;;;4.03;;
9671;SDS011;4874;43.568;27.824;2022-11-20T02:46:42;11.23;;;4.13;;
9671;SDS011;4874;43.568;27.824;2022-11-20T02:49:09;13.77;;;4.32;;
9671;SDS011;4874;43.568;27.824;2022-11-20T02:51:36;9.15;;;3.60;;
9671;SDS011;4874;43.568;27.824;2022-11-20T02:54:03;13.88;;;3.95;;
9671;SDS011;4874;43.568;27.824;2022-11-20T02:56:30;16.88;;;4.25;;
9671;SDS011;4874;43.568;27.824;2022-11-20T02:58:57;11.93;;;3.65;;
9671;SDS011;4874;43.568;27.824;2022-11-20T03:01:23;12.43;;;4.20;;
9671;SDS011;4874;43.568;27.824;2022-11-20T03:03:50;9.93;;;3.88;;
9671;SDS011;4874;43.568;27.824;2022-11-20T03:06:18;12.98;;;4.22;;
9671;SDS011;4874;43.568;27.824;2022-11-20T03:08:45;11.65;;;4.00;;
9671;SDS011;4874;43.568;27.824;2022-11-20T03:11:11;11.00;;;3.78;;
9671;SDS011;4874;43.568;27.824;2022-11-20T03:13:38;15.30;;;4.40;;
9671;SDS011;4874;43.568;27.824;2022-11-20T03:16:06;15.23;;;3.45;;
9671;SDS011;4874;43.568;27.824;2022-11-20T03:18:34;9.30;;;3.42;;
9671;SDS011;4874;43.568;27.824;2022-11-20T03:21:01;9.45;;;3.63;;
9671;SDS011;4874;43.568;27.824;2022-11-20T03:23:29;17.60;;;3.97;;
9671;SDS011;4874;43.568;27.824;2022-11-20T03:29:00;8.30;;;3.03;;
9671;SDS011;4874;43.568;27.824;2022-11-20T03:31:31;10.85;;;3.22;;
9671;SDS011;4874;43.568;27.824;2022-11-20T03:34:00;11.38;;;3.58;;
9671;SDS011;4874;43.568;27.824;2022-11-20T03:36:27;13.48;;;3.55;;
9671;SDS011;4874;43.568;27.824;2022-11-20T03:38:55;12.40;;;3.70;;
9671;SDS011;4874;43.568;27.824;2022-11-20T03:41:23;9.20;;;3.85;;
9671;SDS011;4874;43.568;27.824;2022-11-20T03:43:55;11.55;;;3.50;;
9671;SDS011;4874;43.568;27.824;2022-11-20T03:46:27;11.65;;;3.35;;
9671;SDS011;4874;43.568;27.824;2022-11-20T03:48:54;13.07;;;3.45;;
9671;SDS011;4874;43.568;27.824;2022-11-20T03:51:25;9.18;;;2.90;;
9671;SDS011;4874;43.568;27.824;2022-11-20T03:53:58;12.65;;;3.85;;
9671;SDS011;4874;43.568;27.824;2022-11-20T03:56:27;10.77;;;3.10;;
9671;SDS011;4874;43.568;27.824;2022-11-20T03:58:58;12.50;;;3.85;;
9671;SDS011;4874;43.568;27.824;2022-11-20T04:01:26;12.32;;;4.05;;
9671;SDS011;4874;43.568;27.824;2022-11-20T04:03:55;12.05;;;3.45;;
9671;SDS011;4874;43.568;27.824;2022-11-20T04:06:23;12.80;;;3.53;;
9671;SDS011;4874;43.568;27.824;2022-11-20T04:08:55;7.20;;;3.10;;
9671;SDS011;4874;43.568;27.824;2022-11-20T04:11:24;11.05;;;3.33;;
9671;SDS011;4874;43.568;27.824;2022-11-20T04:13:53;12.13;;;3.80;;
9671;SDS011;4874;43.568;27.824;2022-11-20T04:16:22;13.48;;;3.10;;
9671;SDS011;4874;43.568;27.824;2022-11-20T04:18:54;13.65;;;3.50;;
9671;SDS011;4874;43.568;27.824;2022-11-20T04:21:23;11.88;;;3.88;;
9671;SDS011;4874;43.568;27.824;2022-11-20T04:23:51;9.63;;;3.50;;
9671;SDS011;4874;43.568;27.824;2022-11-20T04:26:19;10.25;;;2.97;;
9671;SDS011;4874;43.568;27.824;2022-11-20T04:28:46;8.60;;;3.05;;
9671;SDS011;4874;43.568;27.824;2022-11-20T04:31:14;10.90;;;3.28;;
9671;SDS011;4874;43.568;27.824;2022-11-20T04:33:42;10.88;;;2.85;;
9671;SDS011;4874;43.568;27.824;2022-11-20T04:36:10;12.95;;;4.05;;
9671;SDS011;4874;43.568;27.824;2022-11-20T04:38:39;10.75;;;3.67;;
9671;SDS011;4874;43.568;27.824;2022-11-20T04:41:07;11.95;;;3.05;;
9671;SDS011;4874;43.568;27.824;2022-11-20T04:43:38;9.65;;;3.10;;
9671;SDS011;4874;43.568;27.824;2022-11-20T04:46:05;12.68;;;3.65;;
9671;SDS011;4874;43.568;27.824;2022-11-20T04:48:31;10.20;;;2.63;;
9671;SDS011;4874;43.568;27.824;2022-11-20T04:51:02;11.90;;;3.60;;
9671;SDS011;4874;43.568;27.824;2022-11-20T04:53:30;11.18;;;3.17;;
9671;SDS011;4874;43.568;27.824;2022-11-20T04:56:00;8.75;;;2.92;;
9671;SDS011;4874;43.568;27.824;2022-11-20T04:58:28;10.32;;;3.28;;
9671;SDS011;4874;43.568;27.824;2022-11-20T05:01:05;13.90;;;3.65;;
9671;SDS011;4874;43.568;27.824;2022-11-20T05:03:37;13.18;;;3.95;;
9671;SDS011;4874;43.568;27.824;2022-11-20T05:06:08;12.95;;;3.85;;
9671;SDS011;4874;43.568;27.824;2022-11-20T05:08:36;13.52;;;3.45;;
9671;SDS011;4874;43.568;27.824;2022-11-20T05:11:04;11.48;;;3.60;;
9671;SDS011;4874;43.568;27.824;2022-11-20T05:13:35;14.07;;;3.50;;
9671;SDS011;4874;43.568;27.824;2022-11-20T05:16:03;10.68;;;3.08;;
9671;SDS011;4874;43.568;27.824;2022-11-20T05:18:35;10.75;;;3.38;;
9671;SDS011;4874;43.568;27.824;2022-11-20T05:21:03;9.63;;;2.95;;
9671;SDS011;4874;43.568;27.824;2022-11-20T05:23:31;9.82;;;2.28;;
9671;SDS011;4874;43.568;27.824;2022-11-20T05:25:59;10.27;;;3.08;;
9671;SDS011;4874;43.568;27.824;2022-11-20T05:28:26;7.57;;;2.90;;
9671;SDS011;4874;43.568;27.824;2022-11-20T05:30:55;10.93;;;3.22;;
9671;SDS011;4874;43.568;27.824;2022-11-20T05:33:22;11.05;;;2.80;;
9671;SDS011;4874;43.568;27.824;2022-11-20T05:35:48;9.23;;;2.60;;
9671;SDS011;4874;43.568;27.824;2022-11-20T05:38:15;10.45;;;2.95;;
9671;SDS011;4874;43.568;27.824;2022-11-20T05:40:42;11.93;;;3.08;;
9671;SDS011;4874;43.568;27.824;2022-11-20T05:43:09;7.07;;;2.50;;
9671;SDS011;4874;43.568;27.824;2022-11-20T05:45:36;9.85;;;2.72;;
9671;SDS011;4874;43.568;27.824;2022-11-20T05:48:02;18.73;;;4.85;;
9671;SDS011;4874;43.568;27.824;2022-11-20T05:50:29;11.80;;;3.10;;
9671;SDS011;4874;43.568;27.824;2022-11-20T05:52:59;11.60;;;3.22;;
9671;SDS011;4874;43.568;27.824;2022-11-20T05:55:27;11.32;;;2.90;;
9671;SDS011;4874;43.568;27.824;2022-11-20T05:57:54;12.98;;;3.63;;
9671;SDS011;4874;43.568;27.824;2022-11-20T06:00:21;9.20;;;2.60;;
9671;SDS011;4874;43.568;27.824;2022-11-20T06:02:48;12.07;;;3.38;;
9671;SDS011;4874;43.568;27.824;2022-11-20T06:05:15;9.98;;;2.58;;
9671;SDS011;4874;43.568;27.824;2022-11-20T06:07:42;9.50;;;2.42;;
9671;SDS011;4874;43.568;27.824;2022-11-20T06:10:09;11.88;;;2.53;;
9671;SDS011;4874;43.568;27.824;2022-11-20T06:12:36;12.13;;;2.80;;
9671;SDS011;4874;43.568;27.824;2022-11-20T06:15:03;14.02;;;3.08;;
9671;SDS011;4874;43.568;27.824;2022-11-20T06:17:31;14.48;;;2.80;;
9671;SDS011;4874;43.568;27.824;2022-11-20T06:19:58;14.80;;;3.03;;
9671;SDS011;4874;43.568;27.824;2022-11-20T06:22:24;10.90;;;2.47;;
9671;SDS011;4874;43.568;27.824;2022-11-20T06:24:51;6.88;;;2.33;;
9671;SDS011;4874;43.568;27.824;2022-11-20T06:27:18;12.05;;;2.63;;
9671;SDS011;4874;43.568;27.824;2022-11-20T06:29:44;9.00;;;3.03;;
9671;SDS011;4874;43.568;27.824;2022-11-20T06:32:11;7.82;;;2.45;;
9671;SDS011;4874;43.568;27.824;2022-11-20T06:34:38;12.27;;;2.80;;
9671;SDS011;4874;43.568;27.824;2022-11-20T06:37:05;14.07;;;2.60;;
9671;SDS011;4874;43.568;27.824;2022-11-20T06:39:31;8.95;;;2.22;;
9671;SDS011;4874;43.568;27.824;2022-11-20T06:41:58;8.07;;;2.10;;
9671;SDS011;4874;43.568;27.824;2022-11-20T06:44:25;17.40;;;4.60;;
9671;SDS011;4874;43.568;27.824;2022-11-20T06:46:52;9.45;;;2.65;;
9671;SDS011;4874;43.568;27.824;2022-11-20T06:49:18;11.23;;;2.67;;
9671;SDS011;4874;43.568;27.824;2022-11-20T06:51:46;10.15;;;2.58;;
9671;SDS011;4874;43.568;27.824;2022-11-20T06:54:13;13.30;;;2.50;;
9671;SDS011;4874;43.568;27.824;2022-11-20T06:56:39;8.75;;;2.22;;
9671;SDS011;4874;43.568;27.824;2022-11-20T06:59:06;6.32;;;2.28;;
9671;SDS011;4874;43.568;27.824;2022-11-20T07:01:33;10.18;;;2.30;;
9671;SDS011;4874;43.568;27.824;2022-11-20T07:04:01;9.32;;;2.22;;
9671;SDS011;4874;43.568;27.824;2022-11-20T07:06:29;8.93;;;2.25;;
9671;SDS011;4874;43.568;27.824;2022-11-20T07:08:56;11.63;;;2.47;;
9671;SDS011;4874;43.568;27.824;2022-11-20T07:11:24;10.45;;;3.47;;
9671;SDS011;4874;43.568;27.824;2022-11-20T07:13:51;8.45;;;3.90;;
9671;SDS011;4874;43.568;27.824;2022-11-20T07:16:17;11.32;;;3.05;;
9671;SDS011;4874;43.568;27.824;2022-11-20T07:18:44;10.63;;;2.55;;
9671;SDS011;4874;43.568;27.824;2022-11-20T07:21:15;7.22;;;2.05;;
9671;SDS011;4874;43.568;27.824;2022-11-20T07:23:42;10.32;;;3.05;;
9671;SDS011;4874;43.568;27.824;2022-11-20T07:26:09;7.80;;;2.40;;
9671;SDS011;4874;43.568;27.824;2022-11-20T07:28:37;9.82;;;2.42;;
9671;SDS011;4874;43.568;27.824;2022-11-20T07:31:04;10.82;;;2.15;;
9671;SDS011;4874;43.568;27.824;2022-11-20T07:33:33;9.63;;;2.78;;
9671;SDS011;4874;43.568;27.824;2022-11-20T07:35:59;8.63;;;2.92;;
9671;SDS011;4874;43.568;27.824;2022-11-20T07:38:27;9.57;;;2.78;;
9671;SDS011;4874;43.568;27.824;2022-11-20T07:40:55;13.98;;;2.30;;
9671;SDS011;4874;43.568;27.824;2022-11-20T07:43:24;10.43;;;3.03;;
9671;SDS011;4874;43.568;27.824;2022-11-20T07:45:51;12.52;;;2.28;;
9671;SDS011;4874;43.568;27.824;2022-11-20T07:48:18;12.63;;;2.92;;
9671;SDS011;4874;43.568;27.824;2022-11-20T07:50:45;10.40;;;1.95;;
9671;SDS011;4874;43.568;27.824;2022-11-20T07:53:11;12.55;;;2.55;;
9671;SDS011;4874;43.568;27.824;2022-11-20T07:55:40;9.32;;;2.83;;
9671;SDS011;4874;43.568;27.824;2022-11-20T07:58:06;9.50;;;2.35;;
9671;SDS011;4874;43.568;27.824;2022-11-20T08:00:33;8.38;;;2.35;;
9671;SDS011;4874;43.568;27.824;2022-11-20T08:03:02;9.57;;;2.40;;
9671;SDS011;4874;43.568;27.824;2022-11-20T08:05:30;11.80;;;2.58;;
9671;SDS011;4874;43.568;27.824;2022-11-20T08:07:57;13.25;;;2.88;;
9671;SDS011;4874;43.568;27.824;2022-11-20T08:10:24;8.48;;;2.30;;
9671;SDS011;4874;43.568;27.824;2022-11-20T08:12:52;10.10;;;2.13;;
9671;SDS011;4874;43.568;27.824;2022-11-20T08:15:39;10.50;;;3.30;;
9671;SDS011;4874;43.568;27.824;2022-11-20T08:18:10;9.52;;;2.88;;
9671;SDS011;4874;43.568;27.824;2022-11-20T08:21:00;12.73;;;3.00;;
9671;SDS011;4874;43.568;27.824;2022-11-20T08:23:28;12.63;;;2.60;;
9671;SDS011;4874;43.568;27.824;2022-11-20T08:25:55;14.60;;;2.70;;
9671;SDS011;4874;43.568;27.824;2022-11-20T08:28:21;14.93;;;2.80;;
9671;SDS011;4874;43.568;27.824;2022-11-20T08:30:48;8.55;;;2.15;;
9671;SDS011;4874;43.568;27.824;2022-11-20T08:33:16;11.38;;;3.25;;
9671;SDS011;4874;43.568;27.824;2022-11-20T08:35:44;15.15;;;2.95;;
9671;SDS011;4874;43.568;27.824;2022-11-20T08:38:11;8.77;;;2.42;;
9671;SDS011;4874;43.568;27.824;2022-11-20T08:40:37;9.60;;;2.25;;
9671;SDS011;4874;43.568;27.824;2022-11-20T08:43:04;13.15;;;2.70;;
9671;SDS011;4874;43.568;27.824;2022-11-20T08:45:31;9.13;;;2.50;;
9671;SDS011;4874;43.568;27.824;2022-11-20T08:48:00;9.50;;;2.53;;
9671;SDS011;4874;43.568;27.824;2022-11-20T08:50:28;10.82;;;2.70;;
9671;SDS011;4874;43.568;27.824;2022-11-20T08:53:06;7.45;;;2.00;;
9671;SDS011;4874;43.568;27.824;2022-11-20T08:55:33;15.48;;;2.88;;
9671;SDS011;4874;43.568;27.824;2022-11-20T08:58:05;11.32;;;3.13;;
9671;SDS011;4874;43.568;27.824;2022-11-20T09:00:33;10.80;;;2.92;;
9671;SDS011;4874;43.568;27.824;2022-11-20T09:03:00;6.72;;;2.22;;
9671;SDS011;4874;43.568;27.824;2022-11-20T09:05:27;7.82;;;2.25;;
9671;SDS011;4874;43.568;27.824;2022-11-20T09:07:57;10.35;;;2.40;;
9671;SDS011;4874;43.568;27.824;2022-11-20T09:10:28;10.15;;;2.75;;
9671;SDS011;4874;43.568;27.824;2022-11-20T09:12:55;16.70;;;4.00;;
9671;SDS011;4874;43.568;27.824;2022-11-20T09:15:22;13.30;;;2.75;;
9671;SDS011;4874;43.568;27.824;2022-11-20T09:20:25;15.55;;;2.50;;
9671;SDS011;4874;43.568;27.824;2022-11-20T09:22:52;11.93;;;3.17;;
9671;SDS011;4874;43.568;27.824;2022-11-20T09:25:19;11.38;;;2.25;;
9671;SDS011;4874;43.568;27.824;2022-11-20T09:27:46;8.90;;;2.80;;
9671;SDS011;4874;43.568;27.824;2022-11-20T09:30:13;14.00;;;2.78;;
9671;SDS011;4874;43.568;27.824;2022-11-20T09:32:41;12.88;;;2.88;;
9671;SDS011;4874;43.568;27.824;2022-11-20T09:35:09;10.48;;;2.55;;
9671;SDS011;4874;43.568;27.824;2022-11-20T09:37:36;10.05;;;3.13;;
9671;SDS011;4874;43.568;27.824;2022-11-20T09:40:03;11.52;;;2.30;;
9671;SDS011;4874;43.568;27.824;2022-11-20T09:53:38;10.07;;;3.72;;
9671;SDS011;4874;43.568;27.824;2022-11-20T09:56:11;13.17;;;2.67;;
9671;SDS011;4874;43.568;27.824;2022-11-20T09:58:44;12.35;;;3.15;;
9671;SDS011;4874;43.568;27.824;2022-11-20T10:01:15;8.88;;;2.72;;
9671;SDS011;4874;43.568;27.824;2022-11-20T10:06:33;12.02;;;2.30;;
9671;SDS011;4874;43.568;27.824;2022-11-20T10:09:14;8.95;;;2.00;;
9671;SDS011;4874;43.568;27.824;2022-11-20T10:17:33;13.15;;;3.15;;
9671;SDS011;4874;43.568;27.824;2022-11-20T10:22:47;6.25;;;1.83;;
9671;SDS011;4874;43.568;27.824;2022-11-20T10:25:19;6.50;;;2.60;;
9671;SDS011;4874;43.568;27.824;2022-11-20T10:30:23;16.90;;;3.75;;
9671;SDS011;4874;43.568;27.824;2022-11-20T10:32:54;8.30;;;3.13;;
9671;SDS011;4874;43.568;27.824;2022-11-20T10:35:34;12.15;;;3.20;;
9671;SDS011;4874;43.568;27.824;2022-11-20T10:38:18;11.10;;;2.97;;
9671;SDS011;4874;43.568;27.824;2022-11-20T10:40:54;9.38;;;2.53;;
9671;SDS011;4874;43.568;27.824;2022-11-20T10:43:46;14.20;;;2.85;;
9671;SDS011;4874;43.568;27.824;2022-11-20T10:46:18;11.23;;;2.83;;
9671;SDS011;4874;43.568;27.824;2022-11-20T10:48:50;10.85;;;2.83;;
9671;SDS011;4874;43.568;27.824;2022-11-20T10:51:21;9.73;;;2.63;;
9671;SDS011;4874;43.568;27.824;2022-11-20T10:57:00;11.80;;;3.20;;
9671;SDS011;4874;43.568;27.824;2022-11-20T11:00:04;9.63;;;2.72;;
9671;SDS011;4874;43.568;27.824;2022-11-20T11:02:54;11.90;;;2.58;;
9671;SDS011;4874;43.568;27.824;2022-11-20T11:05:40;17.83;;;3.10;;
9671;SDS011;4874;43.568;27.824;2022-11-20T11:08:16;10.25;;;2.38;;
9671;SDS011;4874;43.568;27.824;2022-11-20T11:10:51;8.40;;;2.20;;
9671;SDS011;4874;43.568;27.824;2022-11-20T11:15:48;11.52;;;6.32;;
9671;SDS011;4874;43.568;27.824;2022-11-20T11:18:26;14.15;;;8.32;;
9671;SDS011;4874;43.568;27.824;2022-11-20T11:20:56;15.75;;;9.75;;
9671;SDS011;4874;43.568;27.824;2022-11-20T11:23:32;21.02;;;13.75;;
9671;SDS011;4874;43.568;27.824;2022-11-20T11:26:05;20.70;;;13.85;;
9671;SDS011;4874;43.568;27.824;2022-11-20T11:28:33;23.88;;;15.20;;
9671;SDS011;4874;43.568;27.824;2022-11-20T11:31:00;30.17;;;16.27;;
9671;SDS011;4874;43.568;27.824;2022-11-20T11:33:28;26.55;;;16.63;;
9671;SDS011;4874;43.568;27.824;2022-11-20T11:35:58;25.40;;;15.88;;
9671;SDS011;4874;43.568;27.824;2022-11-20T11:41:05;30.83;;;17.83;;
9671;SDS011;4874;43.568;27.824;2022-11-20T11:43:36;29.50;;;17.50;;
9671;SDS011;4874;43.568;27.824;2022-11-20T11:46:27;31.63;;;18.13;;
9671;SDS011;4874;43.568;27.824;2022-11-20T11:49:08;29.70;;;18.58;;
9671;SDS011;4874;43.568;27.824;2022-11-20T11:51:45;34.45;;;17.55;;
9671;SDS011;4874;43.568;27.824;2022-11-20T11:54:20;33.13;;;20.15;;
9671;SDS011;4874;43.568;27.824;2022-11-20T11:56:55;30.63;;;18.92;;
9671;SDS011;4874;43.568;27.824;2022-11-20T11:59:37;30.42;;;18.55;;
9671;SDS011;4874;43.568;27.824;2022-11-20T12:02:15;31.75;;;17.98;;
9671;SDS011;4874;43.568;27.824;2022-11-20T12:04:54;27.80;;;17.38;;
9671;SDS011;4874;43.568;27.824;2022-11-20T12:11:02;26.98;;;16.13;;
9671;SDS011;4874;43.568;27.824;2022-11-20T12:15:44;23.60;;;15.38;;
9671;SDS011;4874;43.568;27.824;2022-11-20T12:18:18;18.67;;;12.40;;
9671;SDS011;4874;43.568;27.824;2022-11-20T12:29:18;20.17;;;10.32;;
9671;SDS011;4874;43.568;27.824;2022-11-20T12:32:06;14.13;;;8.40;;
9671;SDS011;4874;43.568;27.824;2022-11-20T12:34:52;17.70;;;10.02;;
9671;SDS011;4874;43.568;27.824;2022-11-20T12:40:50;20.88;;;9.65;;
9671;SDS011;4874;43.568;27.824;2022-11-20T12:43:51;15.93;;;9.02;;
9671;SDS011;4874;43.568;27.824;2022-11-20T12:55:14;18.50;;;10.10;;
9671;SDS011;4874;43.568;27.824;2022-11-20T13:00:21;19.60;;;11.25;;
9671;SDS011;4874;43.568;27.824;2022-11-20T13:05:46;21.35;;;11.50;;
9671;SDS011;4874;43.568;27.824;2022-11-20T13:08:25;21.83;;;12.55;;
9671;SDS011;4874;43.568;27.824;2022-11-20T13:10:58;20.42;;;11.15;;
9671;SDS011;4874;43.568;27.824;2022-11-20T13:19:04;22.88;;;11.18;;
9671;SDS011;4874;43.568;27.824;2022-11-20T13:21:37;19.70;;;11.00;;
9671;SDS011;4874;43.568;27.824;2022-11-20T13:26:45;27.17;;;17.13;;
9671;SDS011;4874;43.568;27.824;2022-11-20T13:29:18;33.47;;;20.50;;
9671;SDS011;4874;43.568;27.824;2022-11-20T13:31:46;37.60;;;21.85;;
9671;SDS011;4874;43.568;27.824;2022-11-20T13:34:24;28.55;;;19.15;;
9671;SDS011;4874;43.568;27.824;2022-11-20T13:36:54;30.27;;;18.35;;
9671;SDS011;4874;43.568;27.824;2022-11-20T13:39:29;29.58;;;18.08;;
9671;SDS011;4874;43.568;27.824;2022-11-20T13:42:02;30.65;;;18.02;;
9671;SDS011;4874;43.568;27.824;2022-11-20T13:44:39;30.05;;;16.67;;
9671;SDS011;4874;43.568;27.824;2022-11-20T13:47:20;28.58;;;18.00;;
9671;SDS011;4874;43.568;27.824;2022-11-20T13:49:49;32.50;;;18.35;;
9671;SDS011;4874;43.568;27.824;2022-11-20T13:52:42;27.90;;;17.15;;
9671;SDS011;4874;43.568;27.824;2022-11-20T14:00:56;30.33;;;20.10;;
9671;SDS011;4874;43.568;27.824;2022-11-20T14:03:28;31.77;;;17.98;;
9671;SDS011;4874;43.568;27.824;2022-11-20T14:06:30;32.80;;;17.50;;
9671;SDS011;4874;43.568;27.824;2022-11-20T14:08:59;32.00;;;17.95;;
9671;SDS011;4874;43.568;27.824;2022-11-20T14:11:29;26.80;;;15.18;;
9671;SDS011;4874;43.568;27.824;2022-11-20T14:16:32;24.33;;;13.95;;
9671;SDS011;4874;43.568;27.824;2022-11-20T14:21:52;19.27;;;12.38;;
9671;SDS011;4874;43.568;27.824;2022-11-20T14:24:21;22.70;;;13.75;;
9671;SDS011;4874;43.568;27.824;2022-11-20T14:26:49;22.08;;;12.05;;
9671;SDS011;4874;43.568;27.824;2022-11-20T14:29:22;28.63;;;13.57;;
9671;SDS011;4874;43.568;27.824;2022-11-20T14:31:53;20.73;;;12.02;;
9671;SDS011;4874;43.568;27.824;2022-11-20T14:34:22;29.40;;;13.50;;
9671;SDS011;4874;43.568;27.824;2022-11-20T14:36:53;22.55;;;14.40;;
9671;SDS011;4874;43.568;27.824;2022-11-20T14:39:29;25.70;;;14.00;;
9671;SDS011;4874;43.568;27.824;2022-11-20T14:41:59;27.08;;;16.42;;
9671;SDS011;4874;43.568;27.824;2022-11-20T14:44:27;31.25;;;19.42;;
9671;SDS011;4874;43.568;27.824;2022-11-20T14:46:57;41.08;;;23.25;;
9671;SDS011;4874;43.568;27.824;2022-11-20T14:49:26;38.70;;;24.05;;
9671;SDS011;4874;43.568;27.824;2022-11-20T14:52:02;42.22;;;25.27;;
9671;SDS011;4874;43.568;27.824;2022-11-20T14:54:47;43.95;;;26.73;;
9671;SDS011;4874;43.568;27.824;2022-11-20T14:57:34;40.67;;;24.55;;
9671;SDS011;4874;43.568;27.824;2022-11-20T15:00:03;36.42;;;22.33;;
9671;SDS011;4874;43.568;27.824;2022-11-20T15:02:40;33.03;;;20.65;;
9671;SDS011;4874;43.568;27.824;2022-11-20T15:05:09;33.38;;;19.50;;
9671;SDS011;4874;43.568;27.824;2022-11-20T15:07:36;31.35;;;19.25;;
9671;SDS011;4874;43.568;27.824;2022-11-20T15:10:10;25.80;;;16.95;;
9671;SDS011;4874;43.568;27.824;2022-11-20T15:12:55;27.73;;;17.10;;
9671;SDS011;4874;43.568;27.824;2022-11-20T15:17:55;46.85;;;23.70;;
9671;SDS011;4874;43.568;27.824;2022-11-20T15:20:24;48.35;;;23.02;;
9671;SDS011;4874;43.568;27.824;2022-11-20T15:22:53;50.00;;;24.50;;
9671;SDS011;4874;43.568;27.824;2022-11-20T15:25:20;24.48;;;15.00;;
9671;SDS011;4874;43.568;27.824;2022-11-20T15:27:48;32.20;;;18.27;;
9671;SDS011;4874;43.568;27.824;2022-11-20T15:30:20;20.15;;;13.48;;
9671;SDS011;4874;43.568;27.824;2022-11-20T15:32:47;23.05;;;13.65;;
9671;SDS011;4874;43.568;27.824;2022-11-20T15:35:14;27.70;;;15.07;;
9671;SDS011;4874;43.568;27.824;2022-11-20T15:37:41;23.77;;;14.63;;
9671;SDS011;4874;43.568;27.824;2022-11-20T15:40:09;24.05;;;14.82;;
9671;SDS011;4874;43.568;27.824;2022-11-20T15:42:36;30.55;;;17.23;;
9671;SDS011;4874;43.568;27.824;2022-11-20T15:45:03;26.15;;;14.15;;
9671;SDS011;4874;43.568;27.824;2022-11-20T15:47:31;17.95;;;10.93;;
9671;SDS011;4874;43.568;27.824;2022-11-20T15:50:00;15.40;;;8.45;;
9671;SDS011;4874;43.568;27.824;2022-11-20T15:52:27;14.27;;;7.95;;
9671;SDS011;4874;43.568;27.824;2022-11-20T15:54:55;13.20;;;9.38;;
9671;SDS011;4874;43.568;27.824;2022-11-20T15:59:49;15.27;;;8.70;;
9671;SDS011;4874;43.568;27.824;2022-11-20T16:04:44;13.13;;;8.65;;
9671;SDS011;4874;43.568;27.824;2022-11-20T16:09:37;12.32;;;8.55;;
9671;SDS011;4874;43.568;27.824;2022-11-20T16:14:31;13.95;;;8.40;;
9671;SDS011;4874;43.568;27.824;2022-11-20T16:17:16;14.77;;;9.10;;
9671;SDS011;4874;43.568;27.824;2022-11-20T16:20:02;15.30;;;9.18;;
9671;SDS011;4874;43.568;27.824;2022-11-20T16:22:29;14.40;;;10.32;;
9671;SDS011;4874;43.568;27.824;2022-11-20T16:27:23;14.70;;;9.18;;
9671;SDS011;4874;43.568;27.824;2022-11-20T16:29:50;13.15;;;8.65;;
9671;SDS011;4874;43.568;27.824;2022-11-20T16:32:16;13.38;;;8.15;;
9671;SDS011;4874;43.568;27.824;2022-11-20T16:37:09;12.88;;;8.88;;
9671;SDS011;4874;43.568;27.824;2022-11-20T16:39:36;13.73;;;9.85;;
9671;SDS011;4874;43.568;27.824;2022-11-20T16:42:03;13.88;;;9.50;;
9671;SDS011;4874;43.568;27.824;2022-11-20T16:44:30;13.32;;;8.95;;
9671;SDS011;4874;43.568;27.824;2022-11-20T16:49:23;16.60;;;10.48;;
9671;SDS011;4874;43.568;27.824;2022-11-20T16:54:17;16.48;;;10.77;;
9671;SDS011;4874;43.568;27.824;2022-11-20T16:56:46;15.52;;;9.90;;
9671;SDS011;4874;43.568;27.824;2022-11-20T16:59:13;12.95;;;9.05;;
9671;SDS011;4874;43.568;27.824;2022-11-20T17:04:08;16.20;;;10.10;;
9671;SDS011;4874;43.568;27.824;2022-11-20T17:06:39;25.45;;;15.02;;
9671;SDS011;4874;43.568;27.824;2022-11-20T17:09:09;25.55;;;16.63;;
9671;SDS011;4874;43.568;27.824;2022-11-20T17:11:36;27.00;;;17.77;;